createdAt,value
2022-11-16T00:01:06.480Z,99024.38
2022-11-16T00:03:34.529Z,99025.81
2022-11-16T00:06:04.199Z,99019.19
2022-11-16T00:08:36.550Z,99019.50
2022-11-16T00:11:12.694Z,99018.69
2022-11-16T00:13:40.749Z,99013.25
2022-11-16T00:16:08.736Z,99022.47
2022-11-16T00:18:35.847Z,99014.97
2022-11-16T00:21:04.509Z,99010.66
2022-11-16T00:23:32.399Z,99018.41
2022-11-16T00:26:06.831Z,99028.69
2022-11-16T00:28:34.000Z,99017.47
2022-11-16T00:31:03.284Z,99017.38
2022-11-16T00:33:30.214Z,99021.44
2022-11-16T00:35:57.552Z,99019.00
2022-11-16T00:38:24.682Z,99016.41
2022-11-16T00:40:51.507Z,99024.78
2022-11-16T00:43:18.500Z,99029.84
2022-11-16T00:45:45.703Z,99024.16
2022-11-16T00:48:12.881Z,99027.53
2022-11-16T00:50:40.129Z,99027.44
2022-11-16T00:53:07.950Z,99030.81
2022-11-16T00:55:35.102Z,99028.88
2022-11-16T00:58:01.910Z,99030.47
2022-11-16T01:00:28.892Z,99035.88
2022-11-16T01:02:55.815Z,99026.63
2022-11-16T01:05:23.684Z,99031.66
2022-11-16T01:07:51.430Z,99016.25
2022-11-16T01:10:21.433Z,99023.31
2022-11-16T01:12:49.984Z,99026.47
2022-11-16T01:15:18.647Z,99030.81
2022-11-16T01:17:45.682Z,99020.63
2022-11-16T01:20:18.765Z,99017.88
2022-11-16T01:22:46.069Z,99019.06
2022-11-16T01:25:14.872Z,99025.66
2022-11-16T01:27:42.580Z,99026.25
2022-11-16T01:30:12.125Z,99021.09
2022-11-16T01:32:39.040Z,99027.69
2022-11-16T01:35:06.741Z,99025.94
2022-11-16T01:37:33.883Z,99027.69
2022-11-16T01:40:00.858Z,99025.94
2022-11-16T01:42:29.417Z,99029.41
2022-11-16T01:45:27.708Z,99029.63
2022-11-16T01:47:55.161Z,99027.75
2022-11-16T01:53:45.379Z,99027.78
2022-11-16T01:56:12.262Z,99019.16
2022-11-16T01:58:39.088Z,99036.97
2022-11-16T02:01:06.150Z,99034.44
2022-11-16T02:03:33.082Z,99033.56
2022-11-16T02:06:18.240Z,99038.59
2022-11-16T02:09:37.517Z,99035.47
2022-11-16T02:12:04.286Z,99034.94
2022-11-16T02:14:55.436Z,99040.97
2022-11-16T02:17:27.963Z,99039.25
2022-11-16T02:20:18.884Z,99036.81
2022-11-16T02:23:08.606Z,99044.56
2022-11-16T02:25:58.194Z,99044.50
2022-11-16T02:28:39.936Z,99052.59
2022-11-16T02:31:12.768Z,99048.31
2022-11-16T02:33:42.179Z,99050.91
2022-11-16T02:36:14.668Z,99051.78
2022-11-16T02:38:50.538Z,99056.09
2022-11-16T02:41:21.704Z,99052.66
2022-11-16T02:44:00.911Z,99050.91
2022-11-16T02:46:32.838Z,99052.41
2022-11-16T02:49:02.143Z,99051.88
2022-11-16T02:51:30.560Z,99053.94
2022-11-16T02:54:24.776Z,99057.59
2022-11-16T02:56:54.275Z,99055.66
2022-11-16T02:59:22.740Z,99063.84
2022-11-16T03:02:23.480Z,99069.06
2022-11-16T03:04:55.041Z,99065.34
2022-11-16T03:07:30.351Z,99064.56
2022-11-16T03:09:58.161Z,99077.97
2022-11-16T03:12:31.127Z,99080.50
2022-11-16T03:15:02.282Z,99081.16
2022-11-16T03:17:44.403Z,99087.28
2022-11-16T03:20:20.739Z,99086.44
2022-11-16T03:22:54.889Z,99088.91
2022-11-16T03:25:24.850Z,99088.78
2022-11-16T03:28:09.097Z,99088.09
2022-11-16T03:30:42.394Z,99090.41
2022-11-16T03:33:20.826Z,99090.41
2022-11-16T03:35:57.051Z,99094.50
2022-11-16T03:38:26.504Z,99093.50
2022-11-16T03:40:59.846Z,99092.66
2022-11-16T03:43:28.066Z,99093.28
2022-11-16T03:45:56.120Z,99095.75
2022-11-16T03:48:22.833Z,99090.81
2022-11-16T03:50:49.885Z,99105.16
2022-11-16T03:53:16.936Z,99098.38
2022-11-16T03:55:49.567Z,99105.06
2022-11-16T03:58:18.667Z,99099.09
2022-11-16T04:00:45.756Z,99103.31
2022-11-16T04:03:12.698Z,99105.06
2022-11-16T04:05:57.961Z,99109.25
2022-11-16T04:08:43.371Z,99105.72
2022-11-16T04:11:32.947Z,99112.53
2022-11-16T04:14:18.423Z,99108.81
2022-11-16T04:17:03.723Z,99111.25
2022-11-16T04:19:49.260Z,99109.44
2022-11-16T04:22:52.489Z,99113.09
2022-11-16T04:25:25.483Z,99111.84
2022-11-16T04:28:13.226Z,99112.47
2022-11-16T04:31:03.107Z,99120.91
2022-11-16T04:33:50.168Z,99124.81
2022-11-16T04:36:35.688Z,99121.34
2022-11-16T04:39:03.116Z,99128.13
2022-11-16T04:41:52.751Z,99134.03
2022-11-16T04:44:20.196Z,99131.34
2022-11-16T04:47:05.695Z,99132.97
2022-11-16T04:49:32.873Z,99136.28
2022-11-16T04:51:59.740Z,99135.25
2022-11-16T04:54:26.443Z,99139.50
2022-11-16T04:56:53.246Z,99129.44
2022-11-16T04:59:19.996Z,99140.44
2022-11-16T05:02:05.104Z,99146.25
2022-11-16T05:04:31.879Z,99146.97
2022-11-16T05:06:58.693Z,99151.81
2022-11-16T05:09:25.664Z,99155.13
2022-11-16T05:11:52.740Z,99156.81
2022-11-16T05:14:19.608Z,99155.13
2022-11-16T05:16:46.344Z,99154.34
2022-11-16T05:19:31.825Z,99160.22
2022-11-16T05:21:58.624Z,99160.22
2022-11-16T05:24:34.363Z,99160.09
2022-11-16T05:27:13.511Z,99164.56
2022-11-16T05:29:40.325Z,99165.16
2022-11-16T05:32:07.778Z,99165.16
2022-11-16T05:34:34.645Z,99169.34
2022-11-16T05:37:01.919Z,99164.28
2022-11-16T05:39:28.823Z,99172.63
2022-11-16T05:41:56.804Z,99170.09
2022-11-16T05:44:23.742Z,99168.25
2022-11-16T05:46:50.912Z,99163.81
2022-11-16T05:49:18.158Z,99162.91
2022-11-16T05:51:46.242Z,99171.44
2022-11-16T05:54:15.844Z,99168.91
2022-11-16T05:56:43.027Z,99171.31
2022-11-16T05:59:13.787Z,99174.66
2022-11-16T06:01:43.611Z,99178.09
2022-11-16T06:04:10.958Z,99178.38
2022-11-16T06:06:38.249Z,99168.34
2022-11-16T06:09:05.594Z,99177.03
2022-11-16T06:11:35.972Z,99175.56
2022-11-16T06:14:03.995Z,99173.94
2022-11-16T06:16:31.381Z,99170.81
2022-11-16T06:18:59.411Z,99171.00
2022-11-16T06:21:26.412Z,99182.91
2022-11-16T06:23:53.626Z,99186.34
2022-11-16T06:26:20.417Z,99183.88
2022-11-16T06:28:47.292Z,99184.69
2022-11-16T06:31:14.220Z,99192.28
2022-11-16T06:33:40.996Z,99192.22
2022-11-16T06:36:08.195Z,99188.69
2022-11-16T06:38:35.129Z,99188.63
2022-11-16T06:41:02.044Z,99185.28
2022-11-16T06:43:28.867Z,99187.00
2022-11-16T06:45:58.037Z,99186.22
2022-11-16T06:48:25.040Z,99192.16
2022-11-16T06:50:52.885Z,99194.75
2022-11-16T06:53:23.464Z,99194.63
2022-11-16T06:55:52.791Z,99192.09
2022-11-16T06:58:19.592Z,99194.63
2022-11-16T07:00:46.326Z,99194.50
2022-11-16T07:03:13.121Z,99191.06
2022-11-16T07:05:41.982Z,99195.97
2022-11-16T07:08:09.203Z,99199.19
2022-11-16T07:10:36.960Z,99199.19
2022-11-16T07:13:04.448Z,99200.06
2022-11-16T07:15:32.170Z,99209.34
2022-11-16T07:18:08.440Z,99201.22
2022-11-16T07:20:37.914Z,99203.72
2022-11-16T07:23:06.317Z,99204.66
2022-11-16T07:25:34.781Z,99206.50
2022-11-16T07:28:01.567Z,99213.44
2022-11-16T07:30:28.353Z,99203.28
2022-11-16T07:32:59.413Z,99212.09
2022-11-16T07:35:26.332Z,99200.13
2022-11-16T07:37:53.027Z,99205.56
2022-11-16T07:40:20.680Z,99205.88
2022-11-16T07:42:47.520Z,99207.78
2022-11-16T07:45:14.386Z,99207.91
2022-11-16T07:47:41.164Z,99202.97
2022-11-16T07:50:08.438Z,99207.50
2022-11-16T07:52:35.413Z,99208.28
2022-11-16T07:55:02.258Z,99208.41
2022-11-16T07:57:30.603Z,99202.59
2022-11-16T07:59:57.421Z,99189.97
2022-11-16T08:02:24.237Z,99201.91
2022-11-16T08:04:51.154Z,99195.16
2022-11-16T08:07:18.019Z,99195.97
2022-11-16T08:09:44.967Z,99187.63
2022-11-16T08:12:13.070Z,99188.47
2022-11-16T08:14:39.915Z,99189.66
2022-11-16T08:17:08.397Z,99189.44
2022-11-16T08:19:36.660Z,99198.56
2022-11-16T08:22:03.843Z,99184.53
2022-11-16T08:24:30.721Z,99190.59
2022-11-16T08:26:58.820Z,99194.25
2022-11-16T08:29:26.425Z,99200.31
2022-11-16T08:31:53.655Z,99199.63
2022-11-16T08:34:21.327Z,99199.72
2022-11-16T08:36:48.348Z,99199.72
2022-11-16T08:39:15.209Z,99204.81
2022-11-16T08:41:42.801Z,99203.19
2022-11-16T08:44:09.770Z,99199.03
2022-11-16T08:46:36.544Z,99203.19
2022-11-16T08:49:03.405Z,99203.94
2022-11-16T08:51:30.186Z,99204.81
2022-11-16T08:53:58.629Z,99203.88
2022-11-16T08:56:30.184Z,99198.84
2022-11-16T08:58:59.189Z,99200.88
2022-11-16T09:01:29.090Z,99203.66
2022-11-16T09:03:57.268Z,99202.09
2022-11-16T09:06:25.623Z,99211.81
2022-11-16T09:08:52.798Z,99204.16
2022-11-16T09:11:22.339Z,99205.69
2022-11-16T09:13:51.803Z,99202.53
2022-11-16T09:16:21.054Z,99210.09
2022-11-16T09:18:49.679Z,99208.34
2022-11-16T09:21:30.126Z,99202.47
2022-11-16T09:23:58.009Z,99207.13
2022-11-16T09:26:26.328Z,99207.13
2022-11-16T09:28:58.933Z,99205.25
2022-11-16T09:31:27.660Z,99198.22
2022-11-16T09:33:58.362Z,99203.16
2022-11-16T09:36:26.488Z,99200.91
2022-11-16T09:39:25.816Z,99201.13
2022-11-16T09:42:18.851Z,99202.53
2022-11-16T09:45:12.472Z,99205.31
2022-11-16T09:47:50.380Z,99198.59
2022-11-16T09:50:29.760Z,99203.00
2022-11-16T09:53:02.308Z,99203.16
2022-11-16T09:55:35.544Z,99187.16
2022-11-16T09:58:12.055Z,99191.44
2022-11-16T10:00:44.239Z,99196.00
2022-11-16T10:03:13.609Z,99186.00
2022-11-16T10:06:03.409Z,99180.53
2022-11-16T10:08:45.758Z,99187.31
2022-11-16T10:11:30.681Z,99190.44
2022-11-16T10:14:19.011Z,99189.34
2022-11-16T10:17:01.396Z,99182.03
2022-11-16T10:19:52.997Z,99187.69
2022-11-16T10:22:56.092Z,99188.19
2022-11-16T10:25:28.426Z,99175.22
2022-11-16T10:28:07.017Z,99171.34
2022-11-16T10:30:54.720Z,99154.78
2022-11-16T10:33:25.526Z,99132.94
2022-11-16T10:35:56.026Z,99080.59
2022-11-16T10:38:27.828Z,99083.81
2022-11-16T10:41:13.651Z,99105.78
2022-11-16T10:43:42.188Z,99051.09
2022-11-16T10:46:47.451Z,99068.16
2022-11-16T10:49:29.253Z,99128.13
2022-11-16T10:51:56.110Z,99151.75
2022-11-16T10:54:22.977Z,99186.81
2022-11-16T10:57:02.561Z,99203.25
2022-11-16T10:59:48.520Z,99216.25
2022-11-16T11:02:36.205Z,99211.22
2022-11-16T11:05:15.646Z,99207.78
2022-11-16T11:07:46.859Z,99210.59
2022-11-16T11:10:41.459Z,99208.50
2022-11-16T11:13:11.243Z,99211.38
2022-11-16T11:15:42.927Z,99211.38
2022-11-16T11:18:15.912Z,99213.06
2022-11-16T11:20:45.642Z,99212.03
2022-11-16T11:23:22.131Z,99197.78
2022-11-16T11:25:56.269Z,99202.59
2022-11-16T11:28:27.742Z,99203.97
2022-11-16T11:31:03.960Z,99204.16
2022-11-16T11:33:41.629Z,99209.84
2022-11-16T11:36:20.809Z,99215.63
2022-11-16T11:39:07.318Z,99212.91
2022-11-16T11:41:57.813Z,99208.22
2022-11-16T11:44:36.420Z,99213.31
2022-11-16T11:50:27.180Z,99213.88
2022-11-16T11:52:59.526Z,99212.72
2022-11-16T11:55:26.454Z,99227.09
2022-11-16T11:57:54.006Z,99222.00
2022-11-16T12:00:21.250Z,99224.56
2022-11-16T12:03:03.782Z,99223.88
2022-11-16T12:05:53.449Z,99216.38
2022-11-16T12:08:35.186Z,99225.31
2022-11-16T12:11:15.178Z,99216.19
2022-11-16T12:14:19.255Z,99206.41
2022-11-16T12:16:54.664Z,99202.91
2022-11-16T12:19:39.582Z,99192.16
2022-11-16T12:22:33.315Z,99202.50
2022-11-16T12:25:30.803Z,99197.19
2022-11-16T12:28:25.057Z,99189.22
2022-11-16T12:30:51.769Z,99196.31
2022-11-16T12:33:44.301Z,99189.47
2022-11-16T12:36:32.363Z,99181.03
2022-11-16T12:39:26.641Z,99179.34
2022-11-16T12:42:18.168Z,99194.47
2022-11-16T12:45:10.526Z,99183.13
2022-11-16T12:47:55.285Z,99181.03
2022-11-16T12:50:40.776Z,99184.94
2022-11-16T12:53:29.192Z,99188.13
2022-11-16T12:56:04.700Z,99185.34
2022-11-16T12:58:46.634Z,99190.88
2022-11-16T13:01:36.451Z,99185.78
2022-11-16T13:04:13.113Z,99205.31
2022-11-16T13:07:25.086Z,99190.03
2022-11-16T13:10:01.073Z,99197.06
2022-11-16T13:12:30.567Z,99205.88
2022-11-16T13:15:00.421Z,99195.31
2022-11-16T13:17:31.039Z,99198.66
2022-11-16T13:20:18.718Z,99196.22
2022-11-16T13:23:17.608Z,99197.81
2022-11-16T13:25:57.300Z,99201.53
2022-11-16T13:28:40.511Z,99199.75
2022-11-16T13:31:21.810Z,99203.44
2022-11-16T13:33:53.562Z,99210.28
2022-11-16T13:36:32.262Z,99217.78
2022-11-16T13:38:59.046Z,99213.63
2022-11-16T13:41:27.378Z,99211.53
2022-11-16T13:43:54.706Z,99223.91
2022-11-16T13:46:53.750Z,99211.94
2022-11-16T13:49:40.978Z,99220.75
2022-11-16T13:52:23.785Z,99213.81
2022-11-16T13:54:55.440Z,99219.50
2022-11-16T13:57:24.721Z,99229.59
2022-11-16T14:00:05.109Z,99225.50
2022-11-16T14:02:36.239Z,99224.25
2022-11-16T14:05:29.636Z,99228.59
2022-11-16T14:07:56.425Z,99232.41
2022-11-16T14:10:50.058Z,99231.81
2022-11-16T14:13:44.204Z,99236.81
2022-11-16T14:16:20.294Z,99235.56
2022-11-16T14:18:55.823Z,99234.50
2022-11-16T14:21:40.867Z,99231.56
2022-11-16T14:24:25.709Z,99236.84
2022-11-16T14:27:34.183Z,99237.97
2022-11-16T14:30:18.616Z,99241.16
2022-11-16T14:32:52.474Z,99243.63
2022-11-16T14:35:38.967Z,99242.13
2022-11-16T14:38:33.705Z,99238.63
2022-11-16T14:41:03.228Z,99241.69
2022-11-16T14:43:40.591Z,99248.50
2022-11-16T14:46:14.233Z,99249.91
2022-11-16T14:48:46.460Z,99247.38
2022-11-16T14:51:30.782Z,99250.88
2022-11-16T14:54:05.210Z,99255.56
2022-11-16T14:56:31.962Z,99250.13
2022-11-16T14:59:00.694Z,99255.19
2022-11-16T15:01:36.459Z,99258.72
2022-11-16T15:04:11.389Z,99255.34
2022-11-16T15:06:45.933Z,99255.19
2022-11-16T15:09:21.017Z,99247.41
2022-11-16T15:12:08.398Z,99249.75
2022-11-16T15:14:41.656Z,99247.16
2022-11-16T15:17:09.883Z,99241.84
2022-11-16T15:19:36.641Z,99246.78
2022-11-16T15:22:04.417Z,99244.19
2022-11-16T15:24:35.236Z,99246.78
2022-11-16T15:27:20.147Z,99250.19
2022-11-16T15:32:17.872Z,99252.50
2022-11-16T15:34:54.283Z,99244.09
2022-11-16T15:37:30.886Z,99248.25
2022-11-16T15:39:59.118Z,99251.28
2022-11-16T15:42:28.130Z,99243.69
2022-11-16T15:44:56.129Z,99248.66
2022-11-16T15:47:23.968Z,99250.28
2022-11-16T15:49:53.092Z,99246.75
2022-11-16T15:52:46.275Z,99247.16
2022-11-16T15:55:37.048Z,99239.44
2022-11-16T15:58:26.429Z,99240.91
2022-11-16T16:00:54.630Z,99244.06
2022-11-16T16:03:31.550Z,99237.38
2022-11-16T16:05:58.936Z,99232.91
2022-11-16T16:08:27.223Z,99230.31
2022-11-16T16:11:26.453Z,99238.97
2022-11-16T16:14:02.419Z,99228.75
2022-11-16T16:16:30.369Z,99229.44
2022-11-16T16:19:04.970Z,99227.84
2022-11-16T16:21:45.619Z,99228.06
2022-11-16T16:24:41.183Z,99228.22
2022-11-16T16:27:25.627Z,99228.06
2022-11-16T16:29:54.428Z,99227.91
2022-11-16T16:32:24.258Z,99231.16
2022-11-16T16:34:52.632Z,99222.56
2022-11-16T16:37:19.639Z,99229.31
2022-11-16T16:39:46.557Z,99225.84
2022-11-16T16:42:15.322Z,99236.78
2022-11-16T16:44:43.505Z,99230.66
2022-11-16T16:47:10.982Z,99234.72
2022-11-16T16:49:38.158Z,99226.94
2022-11-16T16:52:06.099Z,99226.00
2022-11-16T16:54:32.935Z,99231.72
2022-11-16T16:57:02.383Z,99230.00
2022-11-16T16:59:32.683Z,99224.81
2022-11-16T17:01:59.949Z,99225.47
2022-11-16T17:04:26.800Z,99226.28
2022-11-16T17:06:53.942Z,99219.41
2022-11-16T17:09:21.108Z,99221.81
2022-11-16T17:11:48.108Z,99219.94
2022-11-16T17:14:14.905Z,99215.59
2022-11-16T17:16:41.701Z,99221.47
2022-11-16T17:19:08.477Z,99216.34
2022-11-16T17:21:35.199Z,99211.19
2022-11-16T17:24:02.037Z,99213.66
2022-11-16T17:26:29.625Z,99209.41
2022-11-16T17:28:57.714Z,99206.81
2022-11-16T17:31:26.058Z,99211.00
2022-11-16T17:33:53.144Z,99209.19
2022-11-16T17:36:20.484Z,99205.75
2022-11-16T17:38:47.361Z,99205.53
2022-11-16T17:41:15.267Z,99207.19
2022-11-16T17:43:43.783Z,99202.00
2022-11-16T17:46:15.601Z,99206.28
2022-11-16T17:48:43.367Z,99209.94
2022-11-16T17:51:12.156Z,99202.00
2022-11-16T17:53:39.993Z,99202.81
2022-11-16T17:56:08.034Z,99196.00
2022-11-16T17:58:34.920Z,99202.66
2022-11-16T18:01:01.875Z,99205.19
2022-11-16T18:03:28.881Z,99198.19
2022-11-16T18:06:11.166Z,99194.84
2022-11-16T18:08:38.073Z,99194.25
2022-11-16T18:11:06.911Z,99192.59
2022-11-16T18:13:34.711Z,99193.19
2022-11-16T18:16:15.628Z,99188.81
2022-11-16T18:18:43.973Z,99185.97
2022-11-16T18:21:15.833Z,99187.47
2022-11-16T18:23:46.737Z,99183.94
2022-11-16T18:26:16.367Z,99180.63
2022-11-16T18:28:46.338Z,99174.66
2022-11-16T18:31:18.237Z,99175.56
2022-11-16T18:33:45.257Z,99177.44
2022-11-16T18:36:13.204Z,99174.16
2022-11-16T18:38:39.986Z,99170.56
2022-11-16T18:41:12.905Z,99177.28
2022-11-16T18:43:40.476Z,99177.00
2022-11-16T18:46:07.758Z,99173.56
2022-11-16T18:48:34.695Z,99166.75
2022-11-16T18:51:03.417Z,99167.75
2022-11-16T18:53:31.831Z,99160.22
2022-11-16T18:55:58.903Z,99161.97
2022-11-16T19:01:17.011Z,99158.94
2022-11-16T19:03:44.164Z,99162.44
2022-11-16T19:06:11.890Z,99160.78
2022-11-16T19:08:41.463Z,99160.91
2022-11-16T19:11:14.171Z,99159.44
2022-11-16T19:13:43.207Z,99164.50
2022-11-16T19:16:12.189Z,99166.38
2022-11-16T19:18:39.508Z,99164.78
2022-11-16T19:21:20.065Z,99164.19
2022-11-16T19:23:49.568Z,99162.66
2022-11-16T19:26:18.275Z,99159.44
2022-11-16T19:28:47.044Z,99155.31
2022-11-16T19:31:28.727Z,99163.25
2022-11-16T19:34:00.861Z,99157.44
2022-11-16T19:36:29.701Z,99157.59
2022-11-16T19:38:56.808Z,99155.72
2022-11-16T19:41:24.526Z,99158.91
2022-11-16T19:43:53.111Z,99155.44
2022-11-16T19:46:24.393Z,99153.06
2022-11-16T19:48:51.799Z,99155.84
2022-11-16T19:51:21.364Z,99157.03
2022-11-16T19:53:48.635Z,99152.13
2022-11-16T19:56:18.496Z,99149.69
2022-11-16T19:58:45.807Z,99149.56
2022-11-16T20:01:17.063Z,99144.63
2022-11-16T20:03:46.059Z,99139.69
2022-11-16T20:06:18.153Z,99145.13
2022-11-16T20:08:56.484Z,99141.31
2022-11-16T20:11:25.982Z,99143.88
2022-11-16T20:13:54.320Z,99139.56
2022-11-16T20:16:23.842Z,99140.34
2022-11-16T20:18:51.956Z,99135.13
2022-11-16T20:21:22.745Z,99137.66
2022-11-16T20:23:51.771Z,99138.22
2022-11-16T20:26:19.848Z,99138.28
2022-11-16T20:28:47.761Z,99133.75
2022-11-16T20:31:16.719Z,99133.63
2022-11-16T20:33:50.588Z,99133.75
2022-11-16T20:36:17.424Z,99126.69
2022-11-16T20:38:44.353Z,99129.94
2022-11-16T20:41:16.433Z,99119.09
2022-11-16T20:43:44.732Z,99122.63
2022-11-16T20:46:14.241Z,99121.94
2022-11-16T20:48:42.603Z,99119.41
2022-11-16T20:51:13.969Z,99106.78
2022-11-16T20:53:40.817Z,99110.03
2022-11-16T20:56:07.945Z,99103.41
2022-11-16T20:58:35.055Z,99104.31
2022-11-16T21:01:07.990Z,99107.09
2022-11-16T21:03:35.312Z,99105.19
2022-11-16T21:06:02.519Z,99116.19
2022-11-16T21:08:30.050Z,99112.38
2022-11-16T21:10:57.251Z,99117.63
2022-11-16T21:13:42.908Z,99112.63
2022-11-16T21:16:13.713Z,99105.47
2022-11-16T21:18:40.600Z,99107.47
2022-11-16T21:21:12.206Z,99097.09
2022-11-16T21:23:41.036Z,99107.47
2022-11-16T21:26:11.461Z,99104.78
2022-11-16T21:28:39.245Z,99097.63
2022-11-16T21:31:11.438Z,99096.03
2022-11-16T21:33:38.406Z,99096.25
2022-11-16T21:36:14.893Z,99096.38
2022-11-16T21:38:42.003Z,99096.03
2022-11-16T21:41:13.426Z,99092.81
2022-11-16T21:43:40.886Z,99086.09
2022-11-16T21:46:11.396Z,99081.88
2022-11-16T21:48:38.644Z,99084.44
2022-11-16T21:51:13.997Z,99082.72
2022-11-16T21:53:40.902Z,99078.25
2022-11-16T21:56:12.872Z,99076.63
2022-11-16T21:58:40.316Z,99087.81
2022-11-16T22:01:07.096Z,99078.50
2022-11-16T22:03:34.405Z,99087.88
2022-11-16T22:06:22.368Z,99082.53
2022-11-16T22:08:49.284Z,99079.88
2022-11-16T22:11:16.884Z,99078.06
2022-11-16T22:13:46.559Z,99081.34
2022-11-16T22:16:17.072Z,99080.81
2022-11-16T22:18:44.280Z,99075.53
2022-11-16T22:21:11.465Z,99076.41
2022-11-16T22:23:38.719Z,99073.06
2022-11-16T22:26:07.325Z,99069.53
2022-11-16T22:28:34.921Z,99069.06
2022-11-16T22:31:11.077Z,99066.88
2022-11-16T22:33:38.487Z,99064.34
2022-11-16T22:36:08.377Z,99053.13
2022-11-16T22:38:35.437Z,99057.75
2022-11-16T22:41:02.491Z,99053.16
2022-11-16T22:43:30.544Z,99048.84
2022-11-16T22:46:02.493Z,99048.72
2022-11-16T22:48:36.479Z,99051.69
2022-11-16T22:51:06.656Z,99055.19
2022-11-16T22:53:34.476Z,99044.47
2022-11-16T22:56:09.568Z,99045.31
2022-11-16T22:58:37.725Z,99043.06
2022-11-16T23:01:08.694Z,99038.38
2022-11-16T23:03:36.620Z,99046.63
2022-11-16T23:06:05.133Z,99035.94
2022-11-16T23:08:32.762Z,99040.34
2022-11-16T23:11:34.577Z,99041.97
2022-11-16T23:14:20.946Z,99037.28
2022-11-16T23:16:48.376Z,99040.84
2022-11-16T23:19:36.079Z,99039.16
2022-11-16T23:22:22.390Z,99038.88
2022-11-16T23:25:07.524Z,99043.22
2022-11-16T23:27:43.616Z,99040.47
2022-11-16T23:30:13.093Z,99037.59
2022-11-16T23:32:41.383Z,99038.78
2022-11-16T23:35:09.426Z,99030.63
2022-11-16T23:37:50.017Z,99034.47
2022-11-16T23:40:17.294Z,99030.75
2022-11-16T23:43:02.486Z,99029.63
2022-11-16T23:45:29.559Z,99027.69
2022-11-16T23:47:56.312Z,99022.41
2022-11-16T23:50:23.147Z,99013.25
2022-11-16T23:52:49.929Z,99015.47
2022-11-16T23:55:16.687Z,99008.13
2022-11-16T23:57:43.442Z,99017.75
